createdAt,value
2022-09-22T00:01:51.167Z,3485.50879
2022-09-22T00:16:53.595Z,554.94861
2022-09-22T00:31:55.861Z,503.40912
2022-09-22T00:46:58.134Z,377.55685
2022-09-22T01:02:00.460Z,297.2511
2022-09-22T01:17:03.932Z,218.14395
2022-09-22T01:32:06.397Z,116.26353
2022-09-22T01:47:08.872Z,39.55357
2022-09-22T02:02:11.584Z,8.39015
2022-09-22T02:17:14.154Z,0
2022-09-22T02:32:16.661Z,0
2022-09-22T02:47:19.117Z,0
2022-09-22T03:02:21.379Z,0
2022-09-22T03:17:23.898Z,0
2022-09-22T03:32:26.144Z,0
2022-09-22T03:47:28.353Z,0
2022-09-22T04:02:30.658Z,0
2022-09-22T04:17:32.941Z,0
2022-09-22T04:32:35.220Z,0
2022-09-22T04:47:37.456Z,0
2022-09-22T05:02:39.648Z,0
2022-09-22T05:17:41.901Z,0
2022-09-22T05:32:44.135Z,0
2022-09-22T05:47:46.349Z,0
2022-09-22T06:02:48.868Z,0
2022-09-22T06:17:51.090Z,0
2022-09-22T06:32:53.352Z,0
2022-09-22T06:47:55.611Z,0
2022-09-22T07:02:57.826Z,0
2022-09-22T07:18:00.077Z,0
2022-09-22T07:33:02.357Z,0
2022-09-22T07:48:04.787Z,0
2022-09-22T08:03:06.989Z,0
2022-09-22T08:18:09.242Z,0
2022-09-22T08:33:11.489Z,0
2022-09-22T08:48:13.728Z,0
2022-09-22T09:03:15.993Z,0
2022-09-22T09:18:18.240Z,0
2022-09-22T09:33:20.427Z,0
2022-09-22T09:48:22.638Z,0
2022-09-22T10:03:24.953Z,0
2022-09-22T10:18:27.301Z,0
2022-09-22T10:33:29.665Z,0
2022-09-22T10:48:31.904Z,0
2022-09-22T11:03:34.111Z,0
2022-09-22T11:18:39.528Z,0
2022-09-22T11:33:42.112Z,0
2022-09-22T11:48:44.340Z,0
2022-09-22T12:03:46.636Z,0
2022-09-22T12:18:48.931Z,0
2022-09-22T12:33:51.279Z,0
2022-09-22T12:48:53.665Z,0
2022-09-22T13:03:56.052Z,0
2022-09-22T13:18:58.285Z,1.19859
2022-09-22T13:34:00.731Z,4.79437
2022-09-22T13:49:02.926Z,21.57468
2022-09-22T14:04:05.369Z,52.7381
2022-09-22T14:19:07.726Z,99.48323
2022-09-22T14:34:09.957Z,147.42696
2022-09-22T14:49:12.177Z,226.5341
2022-09-22T15:04:14.467Z,304.44266
2022-09-22T15:19:16.481Z,367.96811
2022-09-22T15:34:18.707Z,370.3653
2022-09-22T15:49:21.141Z,381.15262
2022-09-22T16:04:23.524Z,435.08932
2022-09-22T16:19:25.741Z,436.2879
2022-09-22T16:34:27.950Z,447.07526
2022-09-22T16:49:30.154Z,492.6218
2022-09-22T17:04:32.533Z,545.35986
2022-09-22T17:19:34.749Z,687.99249
2022-09-22T17:34:36.969Z,753.9151
2022-09-22T17:49:39.211Z,1071.54224
2022-09-22T18:04:41.436Z,1120.68457
2022-09-22T18:19:43.638Z,822.23492
2022-09-22T18:34:45.850Z,837.81659
2022-09-22T18:49:48.118Z,991.23651
2022-09-22T19:04:50.428Z,1443.1062
2022-09-22T19:19:52.769Z,1865.01099
2022-09-22T19:34:55.000Z,2538.62036
2022-09-22T19:49:57.241Z,2031.61536
2022-09-22T20:04:59.411Z,1498.24146
2022-09-22T20:20:01.638Z,1459.88647
2022-09-22T20:35:03.850Z,1918.94763
2022-09-22T20:50:06.095Z,1395.16248
2022-09-22T21:05:08.329Z,1232.15381
2022-09-22T21:20:10.576Z,1230.9552
2022-09-22T21:35:12.812Z,1252.52979
2022-09-22T21:50:15.039Z,1200.99036
2022-09-22T22:05:17.272Z,1322.04822
2022-09-22T22:20:19.530Z,1204.58606
2022-09-22T22:35:21.792Z,958.87451
2022-09-22T22:50:23.995Z,816.24194
2022-09-22T23:05:26.255Z,741.92914
2022-09-22T23:20:28.518Z,723.95026
2022-09-22T23:35:30.865Z,731.14185
2022-09-22T23:50:33.113Z,1053.56335
